createdAt,value
2018-06-09T00:00:01.412Z,12.07
2018-06-09T00:01:01.407Z,11.96
2018-06-09T00:02:01.424Z,11.94
2018-06-09T00:03:01.439Z,11.95
2018-06-09T00:04:01.454Z,12.01
2018-06-09T00:05:01.468Z,11.95
2018-06-09T00:06:01.483Z,11.95
2018-06-09T00:07:01.499Z,11.95
2018-06-09T00:08:01.514Z,11.96
2018-06-09T00:09:01.528Z,11.86
2018-06-09T00:10:01.548Z,11.95
2018-06-09T00:11:01.562Z,11.83
2018-06-09T00:12:01.576Z,11.86
2018-06-09T00:13:01.591Z,11.86
2018-06-09T00:14:01.606Z,11.95
2018-06-09T00:15:01.622Z,11.95
2018-06-09T00:16:01.637Z,11.94
2018-06-09T00:17:01.652Z,11.88
2018-06-09T00:18:01.667Z,11.94
2018-06-09T00:19:01.682Z,11.83
2018-06-09T00:20:01.698Z,11.91
2018-06-09T00:21:01.713Z,11.88
2018-06-09T00:22:01.728Z,11.85
2018-06-09T00:23:01.744Z,11.90
2018-06-09T00:24:01.758Z,11.90
2018-06-09T00:25:01.773Z,11.86
2018-06-09T00:26:01.790Z,11.83
2018-06-09T00:27:01.803Z,11.90
2018-06-09T00:28:01.820Z,11.85
2018-06-09T00:29:01.834Z,11.86
2018-06-09T00:30:01.857Z,11.80
2018-06-09T00:31:01.866Z,11.86
2018-06-09T00:32:01.884Z,11.88
2018-06-09T00:33:01.896Z,11.86
2018-06-09T00:34:01.912Z,11.88
2018-06-09T00:35:01.926Z,11.85
2018-06-09T00:36:01.941Z,11.86
2018-06-09T00:37:01.956Z,11.88
2018-06-09T00:38:01.972Z,11.90
2018-06-09T00:39:01.987Z,11.95
2018-06-09T00:40:02.004Z,11.90
2018-06-09T00:41:02.034Z,11.83
2018-06-09T00:42:02.033Z,11.86
2018-06-09T00:43:02.047Z,11.85
2018-06-09T00:44:02.067Z,11.83
2018-06-09T00:45:02.080Z,11.95
2018-06-09T00:46:02.094Z,11.85
2018-06-09T00:47:02.109Z,11.91
2018-06-09T00:48:02.126Z,11.88
2018-06-09T00:49:02.140Z,11.94
2018-06-09T00:50:02.156Z,11.94
2018-06-09T00:51:02.170Z,11.90
2018-06-09T00:52:02.186Z,11.98
2018-06-09T00:53:02.203Z,11.95
2018-06-09T00:54:02.216Z,12.01
2018-06-09T00:55:02.230Z,11.99
2018-06-09T00:56:02.246Z,11.88
2018-06-09T00:57:02.262Z,12.01
2018-06-09T00:58:02.277Z,12.01
2018-06-09T00:59:02.292Z,12.01
2018-06-09T01:00:02.309Z,11.95
2018-06-09T01:01:02.324Z,11.95
2018-06-09T01:02:02.340Z,11.98
2018-06-09T01:03:02.360Z,12.01
2018-06-09T01:04:02.369Z,11.99
2018-06-09T01:05:02.385Z,11.98
2018-06-09T01:06:02.400Z,11.99
2018-06-09T01:07:02.415Z,11.88
2018-06-09T01:08:02.430Z,11.88
2018-06-09T01:09:02.447Z,11.99
2018-06-09T01:10:02.461Z,11.90
2018-06-09T01:11:02.476Z,11.91
2018-06-09T01:12:02.490Z,11.90
2018-06-09T01:13:02.507Z,11.85
2018-06-09T01:14:02.522Z,11.86
2018-06-09T01:15:02.537Z,11.88
2018-06-09T01:16:02.552Z,11.88
2018-06-09T01:17:02.572Z,11.83
2018-06-09T01:18:02.583Z,11.88
2018-06-09T01:19:02.598Z,11.73
2018-06-09T01:20:02.617Z,11.73
2018-06-09T01:21:02.631Z,11.73
2018-06-09T01:22:02.644Z,11.73
2018-06-09T01:23:02.660Z,11.72
2018-06-09T01:24:02.673Z,11.65
2018-06-09T01:25:02.689Z,11.65
2018-06-09T01:26:02.705Z,11.69
2018-06-09T01:27:02.718Z,11.69
2018-06-09T01:28:02.734Z,11.64
2018-06-09T01:29:02.793Z,11.58
2018-06-09T01:30:02.765Z,11.65
2018-06-09T01:31:02.780Z,11.57
2018-06-09T01:32:02.794Z,11.55
2018-06-09T01:33:02.809Z,11.55
2018-06-09T01:34:02.825Z,11.51
2018-06-09T01:35:02.838Z,11.49
2018-06-09T01:36:02.854Z,11.51
2018-06-09T01:37:02.868Z,11.57
2018-06-09T01:38:02.885Z,11.51
2018-06-09T01:39:02.899Z,11.49
2018-06-09T01:40:02.915Z,11.52
2018-06-09T01:41:02.929Z,11.54
2018-06-09T01:42:02.945Z,11.49
2018-06-09T01:43:02.959Z,11.52
2018-06-09T01:44:02.972Z,11.42
2018-06-09T01:45:02.989Z,11.47
2018-06-09T01:46:03.003Z,11.44
2018-06-09T01:47:03.018Z,11.46
2018-06-09T01:48:03.032Z,11.37
2018-06-09T01:49:03.046Z,11.39
2018-06-09T01:50:03.066Z,11.37
2018-06-09T01:51:03.077Z,11.37
2018-06-09T01:52:03.091Z,11.37
2018-06-09T01:53:03.107Z,11.36
2018-06-09T01:54:03.123Z,11.36
2018-06-09T01:55:03.135Z,11.36
2018-06-09T01:56:03.152Z,11.29
2018-06-09T01:57:03.165Z,11.29
2018-06-09T01:58:03.182Z,11.37
2018-06-09T01:59:03.193Z,11.39
2018-06-09T02:00:03.211Z,11.36
2018-06-09T02:01:03.224Z,11.37
2018-06-09T02:02:03.239Z,11.42
2018-06-09T02:03:03.254Z,11.42
2018-06-09T02:04:03.270Z,11.42
2018-06-09T02:05:03.285Z,11.44
2018-06-09T02:06:03.300Z,11.47
2018-06-09T02:07:03.314Z,11.43
2018-06-09T02:08:03.329Z,11.46
2018-06-09T02:09:03.343Z,11.49
2018-06-09T02:10:03.359Z,11.42
2018-06-09T02:11:03.376Z,11.44
2018-06-09T02:12:03.388Z,11.43
2018-06-09T02:13:03.404Z,11.44
2018-06-09T02:14:03.417Z,11.54
2018-06-09T02:15:03.433Z,11.52
2018-06-09T02:16:03.447Z,11.57
2018-06-09T02:17:03.466Z,11.57
2018-06-09T02:18:03.477Z,11.57
2018-06-09T02:19:03.490Z,11.57
2018-06-09T02:20:03.505Z,11.60
2018-06-09T02:21:03.522Z,11.57
2018-06-09T02:22:03.534Z,11.64
2018-06-09T02:23:03.549Z,11.60
2018-06-09T02:24:03.566Z,11.65
2018-06-09T02:25:03.580Z,11.62
2018-06-09T02:26:03.597Z,11.72
2018-06-09T02:27:03.613Z,11.67
2018-06-09T02:28:03.625Z,11.65
2018-06-09T02:29:03.639Z,11.65
2018-06-09T02:30:03.655Z,11.61
2018-06-09T02:31:03.670Z,11.62
2018-06-09T02:32:03.684Z,11.69
2018-06-09T02:33:03.703Z,11.69
2018-06-09T02:34:03.714Z,11.64
2018-06-09T02:35:03.728Z,11.65
2018-06-09T02:36:03.742Z,11.70
2018-06-09T02:37:03.758Z,11.69
2018-06-09T02:38:03.773Z,11.72
2018-06-09T02:39:03.786Z,11.72
2018-06-09T02:40:03.805Z,11.65
2018-06-09T02:41:03.817Z,11.67
2018-06-09T02:42:03.833Z,11.65
2018-06-09T02:43:03.847Z,11.60
2018-06-09T02:44:03.862Z,11.55
2018-06-09T02:45:03.877Z,11.51
2018-06-09T02:46:03.896Z,11.49
2018-06-09T02:47:03.909Z,11.47
2018-06-09T02:48:03.920Z,11.51
2018-06-09T02:49:03.936Z,11.47
2018-06-09T02:50:03.950Z,11.49
2018-06-09T02:51:03.964Z,11.54
2018-06-09T02:52:03.980Z,11.51
2018-06-09T02:53:03.995Z,11.43
2018-06-09T02:54:04.010Z,11.44
2018-06-09T02:55:04.027Z,11.36
2018-06-09T02:56:04.044Z,11.36
2018-06-09T02:57:04.054Z,11.32
2018-06-09T02:58:04.072Z,11.35
2018-06-09T02:59:04.090Z,11.29
2018-06-09T03:00:04.099Z,11.35
2018-06-09T03:01:04.113Z,11.36
2018-06-09T03:02:04.130Z,11.39
2018-06-09T03:03:04.148Z,11.40
2018-06-09T03:04:04.158Z,11.42
2018-06-09T03:05:04.180Z,11.39
2018-06-09T03:06:04.189Z,11.42
2018-06-09T03:07:04.200Z,11.46
2018-06-09T03:08:04.232Z,11.44
2018-06-09T03:09:04.232Z,11.43
2018-06-09T03:10:04.248Z,11.51
2018-06-09T03:11:04.261Z,11.44
2018-06-09T03:12:04.276Z,11.54
2018-06-09T03:13:04.291Z,11.54
2018-06-09T03:14:04.308Z,11.49
2018-06-09T03:15:04.319Z,11.51
2018-06-09T03:16:04.337Z,11.51
2018-06-09T03:17:04.351Z,11.49
2018-06-09T03:18:04.374Z,11.46
2018-06-09T03:19:04.380Z,11.46
2018-06-09T03:20:04.396Z,11.49
2018-06-09T03:21:04.409Z,11.44
2018-06-09T03:22:04.426Z,11.60
2018-06-09T03:23:04.439Z,11.51
2018-06-09T03:24:04.453Z,11.58
2018-06-09T03:25:04.472Z,11.55
2018-06-09T03:26:04.485Z,11.54
2018-06-09T03:27:04.501Z,11.65
2018-06-09T03:28:04.516Z,11.64
2018-06-09T03:29:04.530Z,11.58
2018-06-09T03:30:04.545Z,11.62
2018-06-09T03:31:04.560Z,11.65
2018-06-09T03:32:04.575Z,11.64
2018-06-09T03:33:04.589Z,11.64
2018-06-09T03:34:04.606Z,11.69
2018-06-09T03:35:04.618Z,11.65
2018-06-09T03:36:04.634Z,11.64
2018-06-09T03:37:04.648Z,11.69
2018-06-09T03:38:04.665Z,11.72
2018-06-09T03:39:04.678Z,11.65
2018-06-09T03:40:04.692Z,11.65
2018-06-09T03:41:04.708Z,11.69
2018-06-09T03:42:04.728Z,11.64
2018-06-09T03:43:04.798Z,11.69
2018-06-09T03:44:04.753Z,11.65
2018-06-09T03:45:04.768Z,11.64
2018-06-09T03:46:04.785Z,11.65
2018-06-09T03:47:04.797Z,11.69
2018-06-09T03:48:04.815Z,11.67
2018-06-09T03:49:04.828Z,11.67
2018-06-09T03:50:04.844Z,11.73
2018-06-09T03:51:04.859Z,11.62
2018-06-09T03:52:04.872Z,11.67
2018-06-09T03:53:04.889Z,11.64
2018-06-09T03:54:04.903Z,11.60
2018-06-09T03:55:04.916Z,11.62
2018-06-09T03:56:04.933Z,11.64
2018-06-09T03:57:04.947Z,11.65
2018-06-09T03:58:04.964Z,11.62
2018-06-09T03:59:04.974Z,11.67
2018-06-09T04:00:04.993Z,11.64
2018-06-09T04:01:05.009Z,11.61
2018-06-09T04:02:05.023Z,11.69
2018-06-09T04:03:05.038Z,11.67
2018-06-09T04:04:05.055Z,11.62
2018-06-09T04:05:05.066Z,11.61
2018-06-09T04:06:05.085Z,11.60
2018-06-09T04:07:05.096Z,11.64
2018-06-09T04:08:05.109Z,11.67
2018-06-09T04:09:05.127Z,11.69
2018-06-09T04:10:05.144Z,11.70
2018-06-09T04:11:05.156Z,11.72
2018-06-09T04:12:05.170Z,11.73
2018-06-09T04:13:05.186Z,11.73
2018-06-09T04:14:05.200Z,11.82
2018-06-09T04:15:05.215Z,11.78
2018-06-09T04:16:05.231Z,11.73
2018-06-09T04:17:05.247Z,11.85
2018-06-09T04:18:05.261Z,11.82
2018-06-09T04:19:05.275Z,11.85
2018-06-09T04:20:05.290Z,11.85
2018-06-09T04:21:05.306Z,11.86
2018-06-09T04:22:05.321Z,11.86
2018-06-09T04:23:05.335Z,11.86
2018-06-09T04:24:05.353Z,11.98
2018-06-09T04:25:05.367Z,12.02
2018-06-09T04:26:05.380Z,12.02
2018-06-09T04:27:05.398Z,11.94
2018-06-09T04:28:05.409Z,11.90
2018-06-09T04:29:05.425Z,12.01
2018-06-09T04:30:05.441Z,11.91
2018-06-09T04:31:05.457Z,11.96
2018-06-09T04:32:05.471Z,11.99
2018-06-09T04:33:05.491Z,12.04
2018-06-09T04:34:05.501Z,12.05
2018-06-09T04:35:05.517Z,12.12
2018-06-09T04:36:05.531Z,12.14
2018-06-09T04:37:05.548Z,12.19
2018-06-09T04:38:05.562Z,12.13
2018-06-09T04:39:05.575Z,12.14
2018-06-09T04:40:05.602Z,12.16
2018-06-09T04:41:05.607Z,12.19
2018-06-09T04:42:05.626Z,12.17
2018-06-09T04:43:05.636Z,12.28
2018-06-09T04:44:05.652Z,12.16
2018-06-09T04:45:05.670Z,12.24
2018-06-09T04:46:05.695Z,12.29
2018-06-09T04:47:05.700Z,12.16
2018-06-09T04:48:05.713Z,12.16
2018-06-09T04:49:05.729Z,12.07
2018-06-09T04:50:05.743Z,12.02
2018-06-09T04:51:05.760Z,11.82
2018-06-09T04:52:05.773Z,11.57
2018-06-09T04:53:05.789Z,11.37
2018-06-09T04:54:05.806Z,11.39
2018-06-09T04:55:05.819Z,11.51
2018-06-09T04:56:05.833Z,11.46
2018-06-09T04:57:05.850Z,11.51
2018-06-09T04:58:05.866Z,11.54
2018-06-09T04:59:05.882Z,11.61
2018-06-09T05:00:05.899Z,11.62
2018-06-09T05:01:05.913Z,11.67
2018-06-09T05:02:05.928Z,11.70
2018-06-09T05:03:05.940Z,11.76
2018-06-09T05:04:05.957Z,11.82
2018-06-09T05:05:05.971Z,11.83
2018-06-09T05:06:05.987Z,11.88
2018-06-09T05:07:06.000Z,11.88
2018-06-09T05:08:06.018Z,11.90
2018-06-09T05:09:06.032Z,11.96
2018-06-09T05:10:06.047Z,11.95
2018-06-09T05:11:06.060Z,11.99
2018-06-09T05:12:06.076Z,11.91
2018-06-09T05:13:06.092Z,11.96
2018-06-09T05:14:06.107Z,11.91
2018-06-09T05:15:06.123Z,11.83
2018-06-09T05:16:06.134Z,11.75
2018-06-09T05:17:06.151Z,11.78
2018-06-09T05:18:06.167Z,11.75
2018-06-09T05:19:06.181Z,11.69
2018-06-09T05:20:06.196Z,11.47
2018-06-09T05:21:06.212Z,11.37
2018-06-09T05:22:06.229Z,11.29
2018-06-09T05:23:06.244Z,11.28
2018-06-09T05:24:06.257Z,11.32
2018-06-09T05:25:06.271Z,11.28
2018-06-09T05:26:06.287Z,11.28
2018-06-09T05:27:06.302Z,11.27
2018-06-09T05:28:06.336Z,11.21
2018-06-09T05:29:06.331Z,11.25
2018-06-09T05:30:06.347Z,11.28
2018-06-09T05:31:06.360Z,11.25
2018-06-09T05:32:06.374Z,11.21
2018-06-09T05:33:06.396Z,11.33
2018-06-09T05:34:06.406Z,11.37
2018-06-09T05:35:06.419Z,11.40
2018-06-09T05:36:06.434Z,11.40
2018-06-09T05:37:06.451Z,11.35
2018-06-09T05:38:06.465Z,11.37
2018-06-09T05:39:06.479Z,11.39
2018-06-09T05:40:06.494Z,11.33
2018-06-09T05:41:06.511Z,11.25
2018-06-09T05:42:06.521Z,11.32
2018-06-09T05:43:06.540Z,11.27
2018-06-09T05:44:06.552Z,11.27
2018-06-09T05:45:06.567Z,11.22
2018-06-09T05:46:06.582Z,11.14
2018-06-09T05:47:06.593Z,11.15
2018-06-09T05:48:06.613Z,11.10
2018-06-09T05:49:06.627Z,11.15
2018-06-09T05:50:06.639Z,11.15
2018-06-09T05:51:06.653Z,11.28
2018-06-09T05:52:06.667Z,11.35
2018-06-09T05:53:06.683Z,11.35
2018-06-09T05:54:06.697Z,11.36
2018-06-09T05:55:06.711Z,11.33
2018-06-09T05:56:06.732Z,11.33
2018-06-09T05:57:06.745Z,11.29
2018-06-09T05:58:06.757Z,11.37
2018-06-09T05:59:06.770Z,11.35
2018-06-09T06:00:06.785Z,11.54
2018-06-09T06:01:06.802Z,11.64
2018-06-09T06:02:06.815Z,11.65
2018-06-09T06:03:06.835Z,11.78
2018-06-09T06:04:06.844Z,11.86
2018-06-09T06:05:06.857Z,11.88
2018-06-09T06:06:06.874Z,11.83
2018-06-09T06:07:06.887Z,11.80
2018-06-09T06:08:06.900Z,11.72
2018-06-09T06:09:06.917Z,11.83
2018-06-09T06:10:06.931Z,11.69
2018-06-09T06:11:06.946Z,11.64
2018-06-09T06:12:06.964Z,11.67
2018-06-09T06:13:06.977Z,11.78
2018-06-09T06:14:06.991Z,11.70
2018-06-09T06:15:07.005Z,11.73
2018-06-09T06:16:07.020Z,11.82
2018-06-09T06:17:07.034Z,11.90
2018-06-09T06:18:07.050Z,11.91
2018-06-09T06:19:07.063Z,11.88
2018-06-09T06:20:07.078Z,11.90
2018-06-09T06:21:07.094Z,11.96
2018-06-09T06:22:07.106Z,11.95
2018-06-09T06:23:07.125Z,12.01
2018-06-09T06:24:07.136Z,11.90
2018-06-09T06:25:07.151Z,11.95
2018-06-09T06:26:07.166Z,11.86
2018-06-09T06:27:07.178Z,11.88
2018-06-09T06:28:07.195Z,11.86
2018-06-09T06:29:07.210Z,11.98
2018-06-09T06:30:07.223Z,11.85
2018-06-09T06:31:07.240Z,11.95
2018-06-09T06:32:07.253Z,12.02
2018-06-09T06:33:07.268Z,11.91
2018-06-09T06:34:07.284Z,12.01
2018-06-09T06:35:07.298Z,11.88
2018-06-09T06:36:07.319Z,11.95
2018-06-09T06:37:07.328Z,12.02
2018-06-09T06:38:07.346Z,11.98
2018-06-09T06:39:07.357Z,12.05
2018-06-09T06:40:07.372Z,12.04
2018-06-09T06:41:07.386Z,12.14
2018-06-09T06:42:07.401Z,12.09
2018-06-09T06:43:07.416Z,12.07
2018-06-09T06:44:07.430Z,11.99
2018-06-09T06:45:07.447Z,12.02
2018-06-09T06:46:07.464Z,12.02
2018-06-09T06:47:07.476Z,11.95
2018-06-09T06:48:07.494Z,11.90
2018-06-09T06:49:07.506Z,11.95
2018-06-09T06:50:07.521Z,11.95
2018-06-09T06:51:07.533Z,12.09
2018-06-09T06:52:07.551Z,12.04
2018-06-09T06:53:07.564Z,12.02
2018-06-09T06:54:07.580Z,12.14
2018-06-09T06:55:07.596Z,12.28
2018-06-09T06:56:07.607Z,12.16
2018-06-09T06:57:07.623Z,12.09
2018-06-09T06:58:07.638Z,12.16
2018-06-09T06:59:07.652Z,12.10
2018-06-09T07:00:07.668Z,12.10
2018-06-09T07:01:07.684Z,12.07
2018-06-09T07:02:07.774Z,11.99
2018-06-09T07:03:07.715Z,11.99
2018-06-09T07:04:07.727Z,12.14
2018-06-09T07:05:07.741Z,12.16
2018-06-09T07:06:07.758Z,12.16
2018-06-09T07:07:07.771Z,12.23
2018-06-09T07:08:07.788Z,12.14
2018-06-09T07:09:07.802Z,12.24
2018-06-09T07:10:07.819Z,12.35
2018-06-09T07:11:07.836Z,12.38
2018-06-09T07:12:07.849Z,12.41
2018-06-09T07:13:07.863Z,12.37
2018-06-09T07:14:07.876Z,12.37
2018-06-09T07:15:07.895Z,12.31
2018-06-09T07:16:07.911Z,12.39
2018-06-09T07:17:07.921Z,12.39
2018-06-09T07:18:07.937Z,12.21
2018-06-09T07:19:07.959Z,12.29
2018-06-09T07:20:07.969Z,12.45
2018-06-09T07:21:07.988Z,12.37
2018-06-09T07:22:08.082Z,12.37
2018-06-09T07:23:08.012Z,12.39
2018-06-09T07:24:08.025Z,12.47
2018-06-09T07:25:08.043Z,12.50
2018-06-09T07:26:08.058Z,12.53
2018-06-09T07:27:08.070Z,12.53
2018-06-09T07:28:08.086Z,12.47
2018-06-09T07:29:08.101Z,12.56
2018-06-09T07:30:08.116Z,12.52
2018-06-09T07:31:08.129Z,12.42
2018-06-09T07:32:08.147Z,12.45
2018-06-09T07:33:08.166Z,12.39
2018-06-09T07:34:08.177Z,12.57
2018-06-09T07:35:08.254Z,12.70
2018-06-09T07:36:08.206Z,12.75
2018-06-09T07:37:08.222Z,12.79
2018-06-09T07:38:08.237Z,12.87
2018-06-09T07:39:08.251Z,12.77
2018-06-09T07:40:08.268Z,12.85
2018-06-09T07:41:08.281Z,12.74
2018-06-09T07:42:08.297Z,12.65
2018-06-09T07:43:08.312Z,12.53
2018-06-09T07:44:08.328Z,12.65
2018-06-09T07:45:08.342Z,12.72
2018-06-09T07:46:08.362Z,12.72
2018-06-09T07:47:08.374Z,12.90
2018-06-09T07:48:08.388Z,13.03
2018-06-09T07:49:08.405Z,13.29
2018-06-09T07:50:08.421Z,13.25
2018-06-09T07:51:08.434Z,13.30
2018-06-09T07:52:08.451Z,13.45
2018-06-09T07:53:08.465Z,13.29
2018-06-09T07:54:08.512Z,13.32
2018-06-09T07:55:08.494Z,13.36
2018-06-09T07:56:08.511Z,13.14
2018-06-09T07:57:08.526Z,12.90
2018-06-09T07:58:08.541Z,12.90
2018-06-09T07:59:08.556Z,13.10
2018-06-09T08:00:08.572Z,13.15
2018-06-09T08:01:08.587Z,13.26
2018-06-09T08:02:08.604Z,13.49
2018-06-09T08:03:08.622Z,13.60
2018-06-09T08:04:08.636Z,13.67
2018-06-09T08:05:08.652Z,13.69
2018-06-09T08:06:08.665Z,13.70
2018-06-09T08:07:08.679Z,13.49
2018-06-09T08:08:08.700Z,13.51
2018-06-09T08:09:08.711Z,13.79
2018-06-09T08:10:08.726Z,13.88
2018-06-09T08:11:08.741Z,14.07
2018-06-09T08:12:08.758Z,14.18
2018-06-09T08:13:08.774Z,14.18
2018-06-09T08:14:08.794Z,14.24
2018-06-09T08:15:08.806Z,14.37
2018-06-09T08:16:08.820Z,14.51
2018-06-09T08:17:08.844Z,14.43
2018-06-09T08:18:08.853Z,14.61
2018-06-09T08:19:08.872Z,14.62
2018-06-09T08:20:08.884Z,14.60
2018-06-09T08:21:08.899Z,14.58
2018-06-09T08:22:08.918Z,14.62
2018-06-09T08:23:08.930Z,14.62
2018-06-09T08:24:08.952Z,14.54
2018-06-09T08:25:08.962Z,14.47
2018-06-09T08:26:08.980Z,14.58
2018-06-09T08:27:08.997Z,14.46
2018-06-09T08:28:09.013Z,14.39
2018-06-09T08:29:09.082Z,14.03
2018-06-09T08:30:09.046Z,13.88
2018-06-09T08:31:09.062Z,14.07
2018-06-09T08:32:09.078Z,14.20
2018-06-09T08:33:09.094Z,14.14
2018-06-09T08:34:09.110Z,14.03
2018-06-09T08:35:09.127Z,14.10
2018-06-09T08:36:09.211Z,14.10
2018-06-09T08:37:09.161Z,14.18
2018-06-09T08:38:09.177Z,14.28
2018-06-09T08:39:09.193Z,14.24
2018-06-09T08:40:09.210Z,14.50
2018-06-09T08:41:09.223Z,14.62
2018-06-09T08:42:09.243Z,14.73
2018-06-09T08:43:09.255Z,14.88
2018-06-09T08:44:09.272Z,14.78
2018-06-09T08:45:09.332Z,14.92
2018-06-09T08:46:09.308Z,15.11
2018-06-09T08:47:09.323Z,15.13
2018-06-09T08:48:09.340Z,15.29
2018-06-09T08:49:09.357Z,15.21
2018-06-09T08:50:09.373Z,15.29
2018-06-09T08:51:09.389Z,15.34
2018-06-09T08:52:09.406Z,15.06
2018-06-09T08:53:09.423Z,15.19
2018-06-09T08:54:09.439Z,14.99
2018-06-09T08:55:09.456Z,15.01
2018-06-09T08:56:09.473Z,14.99
2018-06-09T08:57:09.492Z,14.96
2018-06-09T08:58:09.508Z,14.75
2018-06-09T08:59:09.522Z,14.60
2018-06-09T09:00:09.540Z,14.28
2018-06-09T09:01:09.557Z,14.28
2018-06-09T09:02:09.574Z,14.40
2018-06-09T09:03:09.597Z,14.64
2018-06-09T09:04:09.606Z,14.75
2018-06-09T09:05:09.626Z,14.95
2018-06-09T09:06:09.641Z,14.95
2018-06-09T09:07:09.657Z,15.14
2018-06-09T09:08:09.674Z,15.28
2018-06-09T09:09:09.688Z,15.14
2018-06-09T09:10:09.707Z,15.13
2018-06-09T09:11:09.724Z,15.27
2018-06-09T09:12:09.742Z,15.35
2018-06-09T09:13:09.758Z,15.25
2018-06-09T09:14:09.776Z,15.03
2018-06-09T09:15:09.789Z,15.10
2018-06-09T09:16:09.805Z,14.78
2018-06-09T09:17:09.824Z,14.62
2018-06-09T09:18:09.840Z,14.70
2018-06-09T09:19:09.856Z,14.68
2018-06-09T09:20:09.874Z,14.65
2018-06-09T09:21:09.890Z,14.62
2018-06-09T09:22:09.912Z,14.70
2018-06-09T09:23:09.924Z,14.94
2018-06-09T09:24:09.938Z,14.91
2018-06-09T09:25:09.954Z,15.09
2018-06-09T09:26:09.974Z,15.16
2018-06-09T09:27:09.990Z,15.13
2018-06-09T09:28:10.006Z,15.25
2018-06-09T09:29:10.021Z,15.25
2018-06-09T09:30:10.040Z,15.35
2018-06-09T09:31:10.052Z,15.53
2018-06-09T09:32:10.085Z,15.74
2018-06-09T09:33:10.088Z,15.57
2018-06-09T09:34:10.106Z,15.67
2018-06-09T09:35:10.118Z,15.62
2018-06-09T09:36:10.137Z,15.01
2018-06-09T09:37:10.154Z,14.96
2018-06-09T09:38:10.168Z,15.03
2018-06-09T09:39:10.186Z,15.19
2018-06-09T09:40:10.216Z,15.41
2018-06-09T09:41:10.220Z,15.57
2018-06-09T09:42:10.237Z,15.56
2018-06-09T09:43:10.255Z,15.67
2018-06-09T09:44:10.268Z,15.49
2018-06-09T09:45:10.287Z,15.35
2018-06-09T09:46:10.303Z,15.56
2018-06-09T09:47:10.320Z,15.54
2018-06-09T09:48:10.342Z,15.64
2018-06-09T09:49:10.353Z,15.57
2018-06-09T09:50:10.371Z,15.68
2018-06-09T09:51:10.385Z,15.80
2018-06-09T09:52:10.403Z,15.64
2018-06-09T09:53:10.423Z,15.80
2018-06-09T09:54:10.437Z,15.46
2018-06-09T09:55:10.455Z,15.44
2018-06-09T09:56:10.472Z,15.60
2018-06-09T09:57:10.490Z,15.80
2018-06-09T09:58:10.503Z,15.78
2018-06-09T09:59:10.520Z,15.76
2018-06-09T10:00:10.540Z,15.60
2018-06-09T10:01:10.554Z,15.64
2018-06-09T10:02:10.576Z,15.68
2018-06-09T10:03:10.600Z,15.74
2018-06-09T10:04:10.611Z,15.59
2018-06-09T10:05:10.624Z,15.23
2018-06-09T10:06:10.640Z,15.31
2018-06-09T10:07:10.655Z,15.38
2018-06-09T10:08:10.677Z,15.51
2018-06-09T10:09:10.695Z,15.34
2018-06-09T10:10:10.709Z,15.47
2018-06-09T10:11:10.723Z,15.50
2018-06-09T10:12:10.743Z,15.57
2018-06-09T10:13:10.760Z,15.62
2018-06-09T10:14:10.777Z,15.64
2018-06-09T10:15:10.793Z,15.89
2018-06-09T10:16:10.810Z,15.51
2018-06-09T10:17:10.828Z,15.56
2018-06-09T10:18:10.846Z,15.60
2018-06-09T10:19:10.862Z,15.75
2018-06-09T10:20:10.878Z,15.84
2018-06-09T10:21:10.896Z,15.89
2018-06-09T10:22:10.913Z,16.05
2018-06-09T10:23:10.930Z,16.12
2018-06-09T10:24:10.947Z,16.17
2018-06-09T10:25:10.966Z,16.12
2018-06-09T10:26:10.983Z,16.09
2018-06-09T10:27:11.004Z,16.20
2018-06-09T10:28:11.024Z,16.20
2018-06-09T10:29:11.040Z,15.97
2018-06-09T10:30:11.054Z,15.93
2018-06-09T10:31:11.070Z,15.90
2018-06-09T10:32:11.089Z,15.56
2018-06-09T10:33:11.106Z,15.29
2018-06-09T10:34:11.125Z,15.54
2018-06-09T10:35:11.140Z,15.39
2018-06-09T10:36:11.160Z,15.69
2018-06-09T10:37:11.241Z,16.12
2018-06-09T10:38:11.193Z,16.39
2018-06-09T10:39:11.211Z,16.50
2018-06-09T10:40:11.231Z,16.45
2018-06-09T10:41:11.248Z,16.08
2018-06-09T10:42:11.263Z,16.00
2018-06-09T10:43:11.283Z,15.90
2018-06-09T10:44:11.299Z,15.62
2018-06-09T10:45:11.359Z,15.87
2018-06-09T10:46:11.336Z,15.67
2018-06-09T10:47:11.358Z,15.21
2018-06-09T10:48:11.369Z,15.17
2018-06-09T10:49:11.387Z,15.35
2018-06-09T10:50:11.405Z,15.43
2018-06-09T10:51:11.421Z,15.71
2018-06-09T10:52:11.438Z,15.82
2018-06-09T10:53:11.459Z,16.09
2018-06-09T10:54:11.474Z,16.34
2018-06-09T10:55:11.491Z,16.15
2018-06-09T10:56:11.508Z,16.21
2018-06-09T10:57:11.527Z,16.30
2018-06-09T10:58:11.559Z,16.35
2018-06-09T10:59:11.564Z,16.34
2018-06-09T11:00:11.576Z,16.48
2018-06-09T11:01:11.595Z,16.48
2018-06-09T11:02:11.613Z,16.60
2018-06-09T11:03:11.630Z,16.64
2018-06-09T11:04:11.646Z,16.60
2018-06-09T11:05:11.666Z,16.45
2018-06-09T11:06:11.687Z,15.96
2018-06-09T11:07:11.702Z,16.04
2018-06-09T11:08:11.725Z,16.01
2018-06-09T11:09:11.738Z,15.93
2018-06-09T11:10:11.804Z,15.96
2018-06-09T11:11:11.773Z,16.05
2018-06-09T11:12:11.791Z,16.23
2018-06-09T11:13:11.810Z,16.34
2018-06-09T11:14:11.826Z,16.43
2018-06-09T11:15:11.844Z,16.58
2018-06-09T11:16:11.862Z,16.73
2018-06-09T11:17:11.883Z,16.89
2018-06-09T11:18:11.903Z,17.01
2018-06-09T11:19:11.917Z,17.03
2018-06-09T11:20:11.935Z,17.01
2018-06-09T11:21:11.952Z,17.15
2018-06-09T11:22:11.972Z,16.91
2018-06-09T11:23:11.988Z,16.88
2018-06-09T11:24:12.009Z,17.01
2018-06-09T11:25:12.029Z,17.00
2018-06-09T11:26:12.044Z,16.70
2018-06-09T11:27:12.062Z,16.76
2018-06-09T11:28:12.081Z,16.61
2018-06-09T11:29:12.098Z,16.78
2018-06-09T11:30:12.120Z,16.41
2018-06-09T11:31:12.134Z,16.23
2018-06-09T11:32:12.159Z,16.11
2018-06-09T11:33:12.182Z,16.00
2018-06-09T11:34:12.190Z,16.05
2018-06-09T11:35:12.204Z,16.21
2018-06-09T11:36:12.230Z,16.21
2018-06-09T11:37:12.245Z,15.92
2018-06-09T11:38:12.265Z,15.96
2018-06-09T11:39:12.279Z,15.78
2018-06-09T11:40:12.299Z,15.64
2018-06-09T11:41:12.317Z,15.89
2018-06-09T11:42:12.336Z,16.08
2018-06-09T11:43:12.353Z,16.31
2018-06-09T11:44:12.372Z,16.57
2018-06-09T11:45:12.396Z,16.82
2018-06-09T11:46:12.408Z,16.79
2018-06-09T11:47:12.457Z,17.00
2018-06-09T11:48:12.444Z,17.22
2018-06-09T11:49:12.464Z,17.04
2018-06-09T11:50:12.483Z,16.94
2018-06-09T11:51:12.503Z,17.06
2018-06-09T11:52:12.519Z,16.81
2018-06-09T11:53:12.539Z,16.85
2018-06-09T11:54:12.556Z,16.83
2018-06-09T11:55:12.572Z,16.97
2018-06-09T11:56:12.592Z,16.64
2018-06-09T11:57:12.612Z,16.41
2018-06-09T11:58:12.629Z,16.64
2018-06-09T11:59:12.645Z,16.48
2018-06-09T12:00:12.666Z,16.31
2018-06-09T12:01:12.692Z,16.07
2018-06-09T12:02:12.707Z,16.15
2018-06-09T12:03:12.720Z,16.28
2018-06-09T12:04:12.740Z,16.43
2018-06-09T12:05:12.758Z,16.48
2018-06-09T12:06:12.778Z,16.63
2018-06-09T12:07:12.794Z,16.78
2018-06-09T12:08:12.813Z,16.88
2018-06-09T12:09:12.831Z,16.75
2018-06-09T12:10:12.851Z,16.58
2018-06-09T12:11:12.867Z,16.63
2018-06-09T12:12:12.887Z,16.75
2018-06-09T12:13:12.905Z,16.60
2018-06-09T12:14:12.923Z,16.57
2018-06-09T12:15:12.941Z,16.45
2018-06-09T12:16:12.961Z,16.61
2018-06-09T12:17:13.016Z,16.46
2018-06-09T12:18:12.998Z,16.61
2018-06-09T12:19:13.017Z,16.57
2018-06-09T12:20:13.035Z,16.63
2018-06-09T12:21:13.055Z,16.86
2018-06-09T12:22:13.072Z,16.98
2018-06-09T12:23:13.095Z,17.04
2018-06-09T12:24:13.124Z,17.16
2018-06-09T12:25:13.127Z,17.19
2018-06-09T12:26:13.147Z,17.18
2018-06-09T12:27:13.164Z,17.22
2018-06-09T12:28:13.185Z,17.19
2018-06-09T12:29:13.204Z,17.16
2018-06-09T12:30:13.223Z,17.16
2018-06-09T12:31:13.240Z,17.21
2018-06-09T12:32:13.259Z,17.04
2018-06-09T12:33:13.290Z,17.04
2018-06-09T12:34:13.296Z,17.06
2018-06-09T12:35:13.314Z,17.01
2018-06-09T12:36:13.337Z,16.78
2018-06-09T12:37:13.355Z,16.85
2018-06-09T12:38:13.374Z,16.98
2018-06-09T12:39:13.392Z,16.89
2018-06-09T12:40:13.412Z,17.06
2018-06-09T12:41:13.431Z,17.23
2018-06-09T12:42:13.450Z,17.55
2018-06-09T12:43:13.471Z,17.97
2018-06-09T12:44:13.488Z,18.18
2018-06-09T12:45:13.507Z,18.15
2018-06-09T12:46:13.531Z,17.79
2018-06-09T12:47:13.545Z,17.79
2018-06-09T12:48:13.564Z,17.54
2018-06-09T12:49:13.585Z,16.76
2018-06-09T12:50:13.604Z,16.68
2018-06-09T12:51:13.632Z,16.48
2018-06-09T12:52:13.641Z,16.66